PWSweather.com
Personal Weather Stations
Station Observations
KCAEXETE14
Park Place, Exeter, CA 93221

Park PlaceExeter, CA 93221

Lat: 36.283487, Lon: -119.152218

Elevation: 380

Station Type: Davis Vantage Vue

http://weather.manyjourneys.com/

Latest ConditionsUpdated 2:50:01 AM PST Sunday, Feb 17, 2019
Currently Today's Max Today's Min Today's Average
Temperature 42.1°F5.6°C 42.4°F5.8°C 40.2°F4.6°C 41.5°F5.3°C
Dew Point 40.8°F4.9°C 41.1°F5.1°C 38.6°F3.7°C 40.0°F4.4°C
Winds Calm Calm Calm -Calm - - Calm Calm
Wind Gusts -- 1.2 mph1.9 kmh - -
Humidity 95% 95% 93% 95%
Pressure 30.14 in1020.7 mb 30.16 in1021.3 mb 30.14 in1020.7 mb -
Hour Temp Dew Point Humidity Winds Wind Gusts Pressure Precip Precip Rate Daily Precip Total
02:50 AM 42.1°F5.6°C 40.8°F4.9°C 95% Calm Calm -- 30.14 in1020.7 mb - 0.00 in0.0 mm 0.00 in0.0 mm
02:45 AM 42.2°F5.7°C 40.9°F4.9°C 95% Calm Calm 1.2 mph1.9 kmh 30.14 in1020.7 mb - 0.00 in0.0 mm 0.00 in0.0 mm
02:40 AM 42.2°F5.7°C 40.9°F4.9°C 95% Calm Calm -- 30.14 in1020.7 mb - 0.00 in0.0 mm 0.00 in0.0 mm
02:35 AM 42.3°F5.7°C 41.0°F5.0°C 95% Calm Calm -- 30.14 in1020.7 mb - 0.00 in0.0 mm 0.00 in0.0 mm
02:30 AM 42.3°F5.7°C 41.0°F5.0°C 95% Calm Calm -- 30.14 in1020.7 mb - 0.00 in0.0 mm 0.00 in0.0 mm
02:25 AM 42.4°F5.8°C 41.1°F5.1°C 95% Calm Calm -- 30.14 in1020.7 mb - 0.00 in0.0 mm 0.00 in0.0 mm
02:20 AM 42.3°F5.7°C 40.9°F4.9°C 95% Calm Calm -- 30.14 in1020.7 mb - 0.00 in0.0 mm 0.00 in0.0 mm
02:15 AM 42.2°F5.7°C 40.9°F4.9°C 95% Calm Calm -- 30.14 in1020.7 mb - 0.00 in0.0 mm 0.00 in0.0 mm
02:10 AM 42.2°F5.7°C 40.8°F4.9°C 95% Calm Calm -- 30.14 in1020.7 mb - 0.00 in0.0 mm 0.00 in0.0 mm
02:05 AM 42.2°F5.7°C 40.9°F4.9°C 95% Calm Calm -- 30.14 in1020.7 mb - 0.00 in0.0 mm 0.00 in0.0 mm
02:00 AM 42.2°F5.7°C 40.9°F4.9°C 95% Calm Calm -- 30.14 in1020.7 mb - 0.00 in0.0 mm 0.00 in0.0 mm
01:55 AM 42.1°F5.6°C 40.8°F4.9°C 95% Calm Calm -- 30.15 in1021.0 mb - 0.00 in0.0 mm 0.00 in0.0 mm
01:50 AM 41.9°F5.5°C 40.6°F4.8°C 95% Calm Calm -- 30.15 in1021.0 mb - 0.00 in0.0 mm 0.00 in0.0 mm
01:45 AM 41.9°F5.5°C 40.6°F4.8°C 95% Calm Calm -- 30.15 in1021.0 mb - 0.00 in0.0 mm 0.00 in0.0 mm
01:40 AM 41.8°F5.4°C 40.5°F4.7°C 95% Calm Calm -- 30.15 in1021.0 mb - 0.00 in0.0 mm 0.00 in0.0 mm
01:35 AM 41.7°F5.4°C 40.4°F4.7°C 95% Calm Calm -- 30.15 in1021.0 mb - 0.00 in0.0 mm 0.00 in0.0 mm
01:30 AM 41.7°F5.4°C 40.4°F4.7°C 95% Calm Calm -- 30.15 in1021.0 mb - 0.00 in0.0 mm 0.00 in0.0 mm
01:25 AM 41.5°F5.3°C 40.2°F4.6°C 95% Calm Calm -- 30.15 in1021.0 mb - 0.00 in0.0 mm 0.00 in0.0 mm
01:20 AM 41.2°F5.1°C 39.9°F4.4°C 95% Calm Calm -- 30.15 in1021.0 mb - 0.00 in0.0 mm 0.00 in0.0 mm
01:15 AM 41.1°F5.1°C 39.8°F4.3°C 95% Calm Calm -- 30.15 in1021.0 mb - 0.00 in0.0 mm 0.00 in0.0 mm
01:10 AM 41.0°F5.0°C 39.6°F4.2°C 95% Calm Calm -- 30.15 in1021.0 mb - 0.00 in0.0 mm 0.00 in0.0 mm
01:05 AM 40.6°F4.8°C 39.3°F4.1°C 95% Calm Calm -- 30.15 in1021.0 mb - 0.00 in0.0 mm 0.00 in0.0 mm
01:00 AM 40.5°F4.7°C 39.2°F4.0°C 95% Calm Calm -- 30.16 in1021.3 mb - 0.00 in0.0 mm 0.00 in0.0 mm
12:55 AM 40.3°F4.6°C 38.7°F3.7°C 94% Calm Calm -- 30.15 in1021.0 mb - 0.00 in0.0 mm 0.00 in0.0 mm
12:50 AM 40.2°F4.6°C 38.6°F3.7°C 94% Calm Calm -- 30.16 in1021.3 mb - 0.00 in0.0 mm 0.00 in0.0 mm
12:45 AM 40.3°F4.6°C 38.7°F3.7°C 94% Calm Calm -- 30.16 in1021.3 mb - 0.00 in0.0 mm 0.00 in0.0 mm
12:40 AM 40.4°F4.7°C 38.8°F3.8°C 94% Calm Calm -- 30.16 in1021.3 mb - 0.00 in0.0 mm 0.00 in0.0 mm
12:35 AM 40.5°F4.7°C 39.0°F3.9°C 94% Calm Calm -- 30.16 in1021.3 mb - 0.00 in0.0 mm 0.00 in0.0 mm
12:30 AM 40.7°F4.8°C 39.1°F3.9°C 94% Calm Calm -- 30.16 in1021.3 mb - 0.00 in0.0 mm 0.00 in0.0 mm
12:25 AM 40.9°F4.9°C 39.3°F4.1°C 94% Calm Calm -- 30.16 in1021.3 mb - 0.00 in0.0 mm 0.00 in0.0 mm
12:20 AM 41.1°F5.1°C 39.5°F4.2°C 94% Calm Calm -- 30.16 in1021.3 mb - 0.00 in0.0 mm 0.00 in0.0 mm
12:15 AM 41.2°F5.1°C 39.3°F4.1°C 93% Calm Calm -- 30.16 in1021.3 mb - 0.00 in0.0 mm 0.00 in0.0 mm
12:10 AM 41.4°F5.2°C 39.5°F4.2°C 93% Calm Calm -- 30.16 in1021.3 mb - 0.00 in0.0 mm 0.00 in0.0 mm
12:05 AM 41.6°F5.3°C 39.7°F4.3°C 93% Calm Calm -- 30.16 in1021.3 mb - 0.00 in0.0 mm 0.00 in0.0 mm
12:00 AM 41.8°F5.4°C 40.0°F4.4°C 93% Calm Calm -- 30.16 in1021.3 mb - 0.00 in0.0 mm 0.00 in0.0 mm